createdAt,value
2018-09-14T00:00:23.424Z,13.90
2018-09-14T00:02:51.823Z,12.73
2018-09-14T00:05:20.240Z,11.80
2018-09-14T00:07:48.656Z,12.87
2018-09-14T00:10:17.093Z,11.97
2018-09-14T00:12:45.460Z,12.57
2018-09-14T00:15:13.843Z,18.27
2018-09-14T00:17:42.229Z,14.97
2018-09-14T00:20:11.548Z,14.13
2018-09-14T00:22:39.975Z,11.87
2018-09-14T00:25:08.341Z,16.70
2018-09-14T00:27:37.073Z,12.23
2018-09-14T00:30:05.463Z,12.60
2018-09-14T00:32:33.809Z,13.70
2018-09-14T00:35:02.179Z,13.60
2018-09-14T00:37:30.591Z,13.80
2018-09-14T00:39:58.979Z,14.93
2018-09-14T00:42:27.343Z,12.57
2018-09-14T00:44:55.729Z,20.30
2018-09-14T00:47:24.148Z,14.80
2018-09-14T00:49:52.608Z,16.53
2018-09-14T00:52:21.006Z,17.53
2018-09-14T00:54:49.378Z,13.90
2018-09-14T00:57:17.736Z,13.43
2018-09-14T00:59:46.133Z,14.43
2018-09-14T01:02:14.527Z,12.20
2018-09-14T01:04:42.900Z,13.27
2018-09-14T01:07:11.267Z,12.80
2018-09-14T01:09:39.653Z,12.63
2018-09-14T01:12:08.053Z,14.27
2018-09-14T01:14:36.437Z,15.33
2018-09-14T01:17:04.933Z,13.03
2018-09-14T01:19:33.265Z,10.87
2018-09-14T01:22:01.652Z,11.97
2018-09-14T01:24:30.053Z,13.30
2018-09-14T01:26:58.400Z,10.97
2018-09-14T01:29:26.776Z,12.47
2018-09-14T01:31:55.127Z,11.97
2018-09-14T01:34:23.549Z,14.13
2018-09-14T01:36:51.909Z,13.23
2018-09-14T01:39:20.286Z,12.03
2018-09-14T01:41:48.709Z,16.30
2018-09-14T01:44:17.095Z,12.33
2018-09-14T01:46:45.461Z,11.73
2018-09-14T01:49:13.830Z,11.90
2018-09-14T01:51:42.241Z,10.70
2018-09-14T01:54:10.641Z,12.43
2018-09-14T01:56:39.065Z,13.00
2018-09-14T01:59:07.530Z,10.83
2018-09-14T02:01:35.886Z,11.57
2018-09-14T02:04:04.296Z,11.23
2018-09-14T02:06:32.678Z,13.70
2018-09-14T02:09:01.681Z,7.00
2018-09-14T02:11:30.653Z,5.77
2018-09-14T02:13:59.533Z,6.50
2018-09-14T02:16:28.025Z,6.97
2018-09-14T02:18:56.543Z,8.90
2018-09-14T02:21:25.013Z,7.47
2018-09-14T02:23:53.522Z,7.40
2018-09-14T02:26:22.060Z,11.63
2018-09-14T02:28:50.568Z,8.07
2018-09-14T02:31:19.052Z,8.33
2018-09-14T02:33:47.974Z,11.93
2018-09-14T02:36:17.068Z,10.13
2018-09-14T02:38:46.040Z,9.13
2018-09-14T02:41:15.008Z,11.27
2018-09-14T02:43:44.824Z,15.83
2018-09-14T02:46:13.985Z,14.17
2018-09-14T02:48:42.740Z,11.60
2018-09-14T02:51:11.698Z,13.67
2018-09-14T02:53:40.832Z,13.33
2018-09-14T02:56:10.253Z,15.00
2018-09-14T02:58:39.383Z,13.70
2018-09-14T03:01:08.304Z,14.27
2018-09-14T03:03:36.944Z,13.87
2018-09-14T03:06:05.958Z,15.03
2018-09-14T03:08:34.988Z,12.23
2018-09-14T03:11:04.178Z,10.40
2018-09-14T03:13:33.115Z,11.77
2018-09-14T03:16:01.716Z,10.77
2018-09-14T03:18:30.876Z,9.17
2018-09-14T03:20:59.997Z,9.27
2018-09-14T03:23:28.803Z,8.47
2018-09-14T03:25:57.808Z,8.80
2018-09-14T03:28:27.944Z,9.17
2018-09-14T03:30:56.412Z,10.23
2018-09-14T03:33:24.893Z,10.40
2018-09-14T03:35:53.373Z,9.57
2018-09-14T03:38:21.875Z,10.60
2018-09-14T03:40:50.369Z,11.93
2018-09-14T03:43:18.881Z,11.33
2018-09-14T03:45:47.374Z,13.90
2018-09-14T03:48:15.885Z,13.37
2018-09-14T03:50:44.371Z,15.90
2018-09-14T03:53:13.225Z,11.77
2018-09-14T03:55:41.721Z,11.57
2018-09-14T03:58:10.237Z,11.03
2018-09-14T04:00:38.719Z,11.07
2018-09-14T04:03:07.626Z,11.20
2018-09-14T04:05:36.286Z,11.53
2018-09-14T04:08:04.814Z,14.87
2018-09-14T04:10:33.293Z,13.60
2018-09-14T04:13:01.757Z,12.60
2018-09-14T04:15:30.269Z,13.33
2018-09-14T04:17:58.800Z,14.57
2018-09-14T04:20:27.295Z,14.37
2018-09-14T04:22:55.801Z,15.37
2018-09-14T04:25:24.263Z,14.53
2018-09-14T04:27:52.768Z,13.77
2018-09-14T04:30:21.268Z,16.57
2018-09-14T04:32:49.759Z,16.27
2018-09-14T04:35:18.267Z,17.77
2018-09-14T04:37:46.844Z,14.87
2018-09-14T04:40:15.329Z,12.63
2018-09-14T04:42:43.799Z,13.00
2018-09-14T04:45:12.275Z,12.00
2018-09-14T04:47:40.781Z,13.43
2018-09-14T04:50:09.308Z,13.17
2018-09-14T04:52:37.809Z,13.40
2018-09-14T04:55:06.317Z,14.13
2018-09-14T04:57:35.016Z,16.10
2018-09-14T05:00:03.417Z,13.13
2018-09-14T05:02:31.905Z,14.23
2018-09-14T05:05:00.397Z,15.43
2018-09-14T05:07:28.926Z,15.23
2018-09-14T05:09:57.408Z,17.93
2018-09-14T05:12:25.880Z,15.80
2018-09-14T05:14:54.340Z,15.50
2018-09-14T05:17:22.802Z,18.13
2018-09-14T05:19:51.307Z,15.90
2018-09-14T05:22:19.765Z,16.30
2018-09-14T05:24:48.266Z,16.43
2018-09-14T05:27:16.721Z,16.07
2018-09-14T05:29:45.221Z,16.83
2018-09-14T05:32:13.701Z,16.80
2018-09-14T05:34:42.168Z,15.63
2018-09-14T05:37:10.700Z,15.17
2018-09-14T05:39:39.375Z,20.97
2018-09-14T05:42:09.562Z,13.63
2018-09-14T05:44:38.681Z,16.33
2018-09-14T05:47:07.261Z,16.73
2018-09-14T05:49:35.833Z,13.40
2018-09-14T05:52:04.327Z,18.13
2018-09-14T05:54:32.858Z,16.47
2018-09-14T05:57:01.376Z,17.87
2018-09-14T05:59:29.938Z,17.93
2018-09-14T06:01:58.524Z,20.17
2018-09-14T06:04:27.049Z,18.93
2018-09-14T06:06:55.541Z,18.00
2018-09-14T06:09:24.029Z,20.63
2018-09-14T06:11:52.503Z,20.60
2018-09-14T06:14:21.029Z,19.70
2018-09-14T06:16:49.581Z,20.23
2018-09-14T06:19:18.507Z,19.37
2018-09-14T06:21:47.110Z,22.87
2018-09-14T06:24:15.712Z,21.33
2018-09-14T06:26:44.234Z,22.00
2018-09-14T06:29:12.818Z,23.57
2018-09-14T06:31:41.325Z,21.93
2018-09-14T06:34:09.845Z,21.33
2018-09-14T06:36:38.335Z,19.57
2018-09-14T06:39:09.604Z,27.40
2018-09-14T06:41:38.208Z,22.63
2018-09-14T06:44:07.072Z,24.23
2018-09-14T06:46:35.646Z,23.03
2018-09-14T06:49:05.181Z,24.43
2018-09-14T06:51:34.270Z,22.10
2018-09-14T06:54:02.966Z,22.17
2018-09-14T06:56:31.522Z,18.50
2018-09-14T06:59:00.072Z,20.80
2018-09-14T07:01:29.373Z,18.93
2018-09-14T07:03:58.151Z,17.00
2018-09-14T07:06:26.736Z,18.63
2018-09-14T07:08:55.234Z,20.27
2018-09-14T07:11:23.809Z,19.33
2018-09-14T07:13:52.365Z,18.37
2018-09-14T07:16:20.907Z,16.90
2018-09-14T07:18:49.809Z,20.60
2018-09-14T07:21:18.364Z,18.83
2018-09-14T07:23:46.884Z,19.07
2018-09-14T07:26:15.393Z,17.10
2018-09-14T07:28:44.670Z,15.20
2018-09-14T07:31:13.485Z,15.30
2018-09-14T07:33:42.273Z,17.03
2018-09-14T07:36:11.420Z,16.00
2018-09-14T07:38:40.054Z,16.07
2018-09-14T07:41:08.855Z,15.90
2018-09-14T07:43:37.397Z,17.93
2018-09-14T07:46:06.007Z,13.77
2018-09-14T07:48:34.548Z,15.83
2018-09-14T07:51:03.140Z,17.47
2018-09-14T07:53:31.726Z,15.17
2018-09-14T07:56:00.296Z,15.13
2018-09-14T07:58:28.801Z,13.23
2018-09-14T08:00:57.379Z,13.70
2018-09-14T08:03:25.909Z,10.73
2018-09-14T08:05:54.461Z,15.37
2018-09-14T08:08:23.225Z,13.97
2018-09-14T08:10:51.803Z,14.13
2018-09-14T08:13:20.447Z,14.67
2018-09-14T08:15:48.964Z,11.40
2018-09-14T08:18:18.066Z,13.70
2018-09-14T08:20:46.584Z,12.47
2018-09-14T08:23:15.138Z,11.80
2018-09-14T08:25:43.743Z,11.60
2018-09-14T08:28:12.252Z,10.37
2018-09-14T08:30:40.801Z,11.47
2018-09-14T08:33:09.334Z,9.40
2018-09-14T08:35:37.893Z,12.47
2018-09-14T08:38:06.764Z,18.27
2018-09-14T08:40:35.479Z,10.93
2018-09-14T08:43:04.080Z,13.17
2018-09-14T08:45:32.634Z,11.80
2018-09-14T08:48:01.235Z,11.90
2018-09-14T08:50:29.723Z,11.70
2018-09-14T08:52:58.327Z,14.53
2018-09-14T08:55:26.869Z,9.30
2018-09-14T08:57:55.415Z,13.33
2018-09-14T09:00:24.640Z,14.43
2018-09-14T09:02:55.062Z,14.43
2018-09-14T09:05:24.437Z,13.70
2018-09-14T09:07:52.942Z,15.87
2018-09-14T09:10:21.475Z,13.50
2018-09-14T09:12:50.056Z,27.73
2018-09-14T09:15:18.626Z,14.87
2018-09-14T09:17:47.178Z,13.67
2018-09-14T09:20:15.703Z,13.70
2018-09-14T09:22:45.072Z,13.57
2018-09-14T09:25:14.326Z,14.00
2018-09-14T09:27:42.830Z,12.60
2018-09-14T09:30:11.336Z,12.80
2018-09-14T09:32:39.975Z,11.30
2018-09-14T09:35:08.711Z,10.63
2018-09-14T09:37:37.253Z,9.63
2018-09-14T09:40:05.784Z,9.70
2018-09-14T09:42:34.848Z,12.67
2018-09-14T09:45:03.426Z,12.37
2018-09-14T09:47:33.365Z,12.50
2018-09-14T09:50:01.917Z,10.93
2018-09-14T09:52:30.441Z,13.20
2018-09-14T09:54:58.949Z,12.17
2018-09-14T09:57:27.460Z,7.70
2018-09-14T09:59:56.259Z,11.07
2018-09-14T10:02:29.052Z,12.47
2018-09-14T10:05:02.936Z,11.63
2018-09-14T10:07:31.445Z,12.00
2018-09-14T10:09:59.963Z,11.70
2018-09-14T10:12:28.466Z,10.63
2018-09-14T10:14:57.020Z,16.23
2018-09-14T10:17:26.042Z,10.93
2018-09-14T10:19:54.703Z,9.03
2018-09-14T10:22:23.546Z,10.83
2018-09-14T10:24:52.717Z,10.83
2018-09-14T10:27:21.201Z,11.63
2018-09-14T10:29:49.703Z,11.37
2018-09-14T10:32:18.221Z,10.33
2018-09-14T10:34:46.877Z,11.67
2018-09-14T10:37:15.885Z,11.53
2018-09-14T10:39:44.410Z,14.47
2018-09-14T10:42:13.041Z,11.87
2018-09-14T10:44:41.734Z,12.40
2018-09-14T10:47:10.415Z,12.17
2018-09-14T10:49:39.967Z,9.90
2018-09-14T10:52:09.159Z,13.10
2018-09-14T10:54:37.656Z,9.80
2018-09-14T10:57:06.186Z,9.43
2018-09-14T10:59:34.645Z,9.07
2018-09-14T11:02:03.194Z,11.00
2018-09-14T11:04:31.941Z,8.43
2018-09-14T11:07:00.784Z,9.60
2018-09-14T11:09:29.441Z,9.27
2018-09-14T11:11:58.979Z,9.30
2018-09-14T11:14:27.991Z,9.47
2018-09-14T11:16:56.596Z,7.10
2018-09-14T11:19:25.146Z,7.57
2018-09-14T11:21:53.718Z,8.63
2018-09-14T11:24:22.204Z,9.20
2018-09-14T11:26:50.802Z,8.77
2018-09-14T11:29:19.616Z,9.33
2018-09-14T11:31:48.225Z,11.40
2018-09-14T11:34:16.891Z,11.27
2018-09-14T11:36:45.442Z,10.17
2018-09-14T11:39:14.472Z,8.13
2018-09-14T11:41:42.980Z,11.73
2018-09-14T11:44:11.492Z,9.10
2018-09-14T11:46:40.109Z,9.77
2018-09-14T11:49:08.640Z,12.63
2018-09-14T11:51:37.156Z,9.23
2018-09-14T11:54:07.103Z,11.73
2018-09-14T11:56:35.916Z,11.83
2018-09-14T11:59:04.557Z,12.57
2018-09-14T12:01:33.454Z,11.37
2018-09-14T12:04:02.447Z,11.23
2018-09-14T12:06:31.210Z,13.23
2018-09-14T12:08:59.777Z,10.57
2018-09-14T12:11:28.542Z,14.73
2018-09-14T12:13:57.806Z,13.17
2018-09-14T12:16:26.733Z,12.97
2018-09-14T12:18:55.852Z,9.30
2018-09-14T12:21:24.554Z,10.63
2018-09-14T12:23:53.125Z,11.97
2018-09-14T12:26:21.616Z,12.60
2018-09-14T12:28:50.589Z,9.70
2018-09-14T12:31:20.134Z,12.67
2018-09-14T12:33:48.685Z,10.23
2018-09-14T12:36:17.533Z,10.63
2018-09-14T12:38:46.109Z,8.30
2018-09-14T12:41:15.859Z,12.07
2018-09-14T12:43:45.253Z,11.27
2018-09-14T12:46:13.900Z,8.87
2018-09-14T12:48:44.135Z,10.77
2018-09-14T12:51:12.860Z,12.70
2018-09-14T12:53:42.837Z,11.67
2018-09-14T12:56:11.550Z,11.57
2018-09-14T12:58:40.171Z,10.27
2018-09-14T13:01:09.043Z,12.80
2018-09-14T13:03:37.936Z,9.50
2018-09-14T13:06:08.019Z,10.70
2018-09-14T13:08:36.681Z,8.60
2018-09-14T13:11:06.898Z,12.53
2018-09-14T13:13:37.787Z,7.40
2018-09-14T13:16:08.547Z,12.07
2018-09-14T13:18:37.150Z,8.53
2018-09-14T13:21:05.641Z,7.03
2018-09-14T13:23:34.136Z,12.63
2018-09-14T13:26:04.371Z,12.20
2018-09-14T13:28:33.872Z,10.20
2018-09-14T13:31:03.247Z,8.57
2018-09-14T13:33:32.128Z,7.43
2018-09-14T13:36:00.661Z,5.67
2018-09-14T13:38:29.218Z,6.93
2018-09-14T13:40:58.017Z,7.57
2018-09-14T13:43:26.547Z,9.93
2018-09-14T13:45:58.323Z,9.60
2018-09-14T13:48:26.855Z,7.40
2018-09-14T13:50:55.415Z,9.27
2018-09-14T13:53:23.904Z,6.40
2018-09-14T13:55:53.269Z,7.03
2018-09-14T13:58:22.000Z,6.63
2018-09-14T14:00:50.523Z,7.70
2018-09-14T14:03:19.778Z,7.13
2018-09-14T14:05:48.424Z,6.67
2018-09-14T14:08:17.031Z,8.13
2018-09-14T14:10:46.151Z,8.07
2018-09-14T14:13:14.956Z,5.77
2018-09-14T14:15:43.540Z,6.77
2018-09-14T14:18:12.821Z,9.27
2018-09-14T14:20:41.689Z,7.57
2018-09-14T14:23:11.043Z,8.40
2018-09-14T14:25:39.679Z,8.60
2018-09-14T14:28:09.107Z,9.13
2018-09-14T14:30:38.765Z,7.20
2018-09-14T14:33:09.062Z,10.10
2018-09-14T14:35:37.875Z,7.03
2018-09-14T14:38:06.719Z,6.57
2018-09-14T14:40:35.696Z,6.00
2018-09-14T14:43:04.677Z,7.73
2018-09-14T14:45:33.461Z,9.07
2018-09-14T14:48:02.453Z,8.10
2018-09-14T14:50:31.151Z,8.83
2018-09-14T14:52:59.899Z,5.83
2018-09-14T14:55:28.754Z,9.00
2018-09-14T14:57:57.482Z,6.27
2018-09-14T15:00:26.318Z,5.80
2018-09-14T15:02:54.927Z,7.70
2018-09-14T15:05:23.459Z,6.93
2018-09-14T15:07:51.997Z,6.37
2018-09-14T15:10:20.495Z,6.83
2018-09-14T15:12:49.117Z,8.97
2018-09-14T15:15:17.581Z,6.37
2018-09-14T15:17:46.122Z,7.60
2018-09-14T15:20:14.795Z,8.80
2018-09-14T15:22:43.343Z,6.07
2018-09-14T15:25:11.918Z,10.23
2018-09-14T15:27:40.449Z,4.53
2018-09-14T15:30:09.066Z,6.23
2018-09-14T15:32:37.638Z,8.30
2018-09-14T15:35:07.004Z,10.30
2018-09-14T15:37:35.905Z,9.53
2018-09-14T15:40:04.662Z,7.40
2018-09-14T15:42:33.321Z,7.57
2018-09-14T15:45:01.980Z,9.30
2018-09-14T15:47:30.661Z,6.00
2018-09-14T15:49:59.393Z,7.00
2018-09-14T15:52:27.931Z,4.30
2018-09-14T15:54:56.494Z,5.27
2018-09-14T15:57:25.030Z,6.83
2018-09-14T15:59:53.709Z,10.07
2018-09-14T16:02:22.196Z,8.33
2018-09-14T16:04:51.004Z,7.93
2018-09-14T16:07:20.213Z,6.10
2018-09-14T16:09:48.793Z,7.63
2018-09-14T16:12:18.017Z,6.10
2018-09-14T16:14:46.551Z,6.97
2018-09-14T16:17:15.096Z,4.20
2018-09-14T16:19:44.800Z,4.13
2018-09-14T16:22:13.368Z,6.00
2018-09-14T16:24:41.912Z,5.90
2018-09-14T16:27:10.478Z,4.33
2018-09-14T16:29:38.974Z,5.70
2018-09-14T16:32:07.511Z,4.80
2018-09-14T16:34:36.093Z,8.47
2018-09-14T16:37:04.741Z,4.87
2018-09-14T16:39:33.295Z,8.33
2018-09-14T16:42:01.843Z,9.57
2018-09-14T16:44:30.376Z,2.90
2018-09-14T16:46:58.945Z,4.90
2018-09-14T16:49:27.496Z,6.87
2018-09-14T16:51:56.489Z,5.27
2018-09-14T16:54:25.023Z,3.10
2018-09-14T16:56:53.560Z,3.53
2018-09-14T16:59:22.129Z,5.03
2018-09-14T17:01:50.649Z,4.27
2018-09-14T17:04:19.268Z,3.20
2018-09-14T17:06:47.758Z,5.87
2018-09-14T17:09:16.347Z,4.53
2018-09-14T17:11:44.928Z,5.23
2018-09-14T17:14:13.462Z,4.10
2018-09-14T17:16:41.991Z,4.13
2018-09-14T17:19:10.579Z,3.20
2018-09-14T17:21:39.999Z,5.33
2018-09-14T17:24:08.555Z,7.67
2018-09-14T17:26:37.057Z,5.60
2018-09-14T17:29:05.594Z,5.27
2018-09-14T17:31:34.084Z,11.20
2018-09-14T17:34:02.648Z,5.53
2018-09-14T17:36:31.188Z,5.20
2018-09-14T17:38:59.765Z,4.17
2018-09-14T17:41:28.349Z,3.77
2018-09-14T17:43:56.882Z,7.17
2018-09-14T17:46:25.409Z,5.33
2018-09-14T17:48:53.943Z,5.23
2018-09-14T17:51:22.433Z,3.93
2018-09-14T17:53:50.963Z,2.53
2018-09-14T17:56:19.501Z,6.90
2018-09-14T17:58:48.074Z,3.37
2018-09-14T18:01:16.649Z,3.67
2018-09-14T18:03:48.049Z,5.40
2018-09-14T18:06:16.817Z,3.30
2018-09-14T18:08:45.360Z,3.50
2018-09-14T18:11:14.116Z,4.70
2018-09-14T18:13:42.708Z,2.73
2018-09-14T18:16:11.238Z,2.70
2018-09-14T18:18:39.755Z,6.53
2018-09-14T18:21:08.556Z,2.73
2018-09-14T18:23:37.031Z,5.73
2018-09-14T18:26:05.565Z,3.80
2018-09-14T18:28:34.112Z,3.07
2018-09-14T18:31:02.639Z,4.00
2018-09-14T18:33:31.530Z,2.87
2018-09-14T18:36:00.230Z,6.10
2018-09-14T18:38:30.690Z,2.33
2018-09-14T18:40:59.404Z,2.17
2018-09-14T18:43:28.862Z,3.90
2018-09-14T18:45:57.457Z,2.57
2018-09-14T18:48:25.979Z,2.53
2018-09-14T18:50:54.877Z,4.53
2018-09-14T18:53:23.398Z,5.00
2018-09-14T18:55:51.985Z,3.13
2018-09-14T18:58:20.544Z,4.57
2018-09-14T19:00:49.072Z,3.23
2018-09-14T19:03:17.706Z,2.60
2018-09-14T19:05:46.197Z,4.87
2018-09-14T19:08:14.658Z,3.07
2018-09-14T19:10:43.162Z,1.90
2018-09-14T19:13:11.687Z,1.70
2018-09-14T19:15:40.196Z,4.17
2018-09-14T19:18:08.849Z,2.33
2018-09-14T19:20:37.374Z,3.07
2018-09-14T19:23:06.012Z,1.13
2018-09-14T19:25:36.867Z,2.20
2018-09-14T19:28:05.412Z,4.93
2018-09-14T19:30:33.876Z,2.73
2018-09-14T19:33:02.425Z,2.27
2018-09-14T19:35:31.014Z,3.77
2018-09-14T19:37:59.557Z,4.53
2018-09-14T19:40:28.205Z,3.57
2018-09-14T19:42:56.718Z,3.37
2018-09-14T19:45:25.237Z,3.93
2018-09-14T19:47:53.705Z,3.40
2018-09-14T19:51:51.595Z,2.47
2018-09-14T19:54:20.209Z,5.47
2018-09-14T19:56:49.408Z,5.90
2018-09-14T19:59:17.984Z,4.40
2018-09-14T20:01:46.496Z,3.43
2018-09-14T20:04:15.299Z,2.47
2018-09-14T20:06:43.841Z,2.93
2018-09-14T20:09:14.130Z,3.50
2018-09-14T20:11:43.420Z,3.27
2018-09-14T20:14:11.876Z,3.07
2018-09-14T20:16:40.735Z,3.87
2018-09-14T20:19:09.382Z,1.40
2018-09-14T20:21:38.044Z,3.50
2018-09-14T20:24:06.644Z,5.67
2018-09-14T20:26:35.158Z,2.43
2018-09-14T20:29:03.723Z,3.63
2018-09-14T20:31:32.234Z,2.70
2018-09-14T20:34:00.854Z,1.77
2018-09-14T20:36:30.223Z,3.07
2018-09-14T20:38:58.777Z,4.20
2018-09-14T20:41:27.504Z,1.73
2018-09-14T20:43:56.051Z,3.83
2018-09-14T20:46:25.026Z,3.20
2018-09-14T20:48:53.558Z,1.60
2018-09-14T20:51:22.066Z,2.90
2018-09-14T20:53:51.450Z,2.70
2018-09-14T20:56:20.018Z,2.80
2018-09-14T20:58:49.526Z,3.87
2018-09-14T21:01:18.083Z,4.47
2018-09-14T21:03:46.723Z,3.47
2018-09-14T21:06:15.262Z,4.27
2018-09-14T21:08:43.857Z,3.60
2018-09-14T21:11:12.589Z,4.23
2018-09-14T21:13:41.212Z,3.50
2018-09-14T21:16:09.790Z,6.77
2018-09-14T21:18:38.650Z,3.77
2018-09-14T21:21:07.377Z,3.00
2018-09-14T21:23:36.555Z,4.93
2018-09-14T21:26:05.078Z,2.80
2018-09-14T21:28:33.652Z,3.07
2018-09-14T21:31:02.749Z,1.70
2018-09-14T21:33:31.834Z,5.87
2018-09-14T21:36:00.848Z,5.03
2018-09-14T21:38:29.641Z,2.57
2018-09-14T21:40:58.623Z,4.30
2018-09-14T21:43:27.715Z,3.70
2018-09-14T21:45:56.331Z,4.17
2018-09-14T21:48:25.001Z,6.00
2018-09-14T21:50:53.481Z,3.10
2018-09-14T21:53:22.336Z,3.50
2018-09-14T21:55:50.842Z,6.03
2018-09-14T21:58:19.394Z,2.90
2018-09-14T22:00:53.318Z,7.67
2018-09-14T22:03:21.955Z,5.67
2018-09-14T22:05:50.526Z,3.63
2018-09-14T22:08:19.151Z,5.47
2018-09-14T22:10:47.772Z,4.40
2018-09-14T22:13:17.608Z,6.13
2018-09-14T22:15:46.171Z,5.63
2018-09-14T22:18:14.731Z,6.53
2018-09-14T22:20:43.312Z,4.10
2018-09-14T22:23:11.842Z,4.63
2018-09-14T22:25:40.718Z,4.43
2018-09-14T22:28:09.264Z,12.73
2018-09-14T22:30:37.849Z,5.53
2018-09-14T22:33:06.460Z,4.03
2018-09-14T22:35:35.135Z,4.87
2018-09-14T22:38:03.663Z,4.97
2018-09-14T22:40:32.252Z,5.07
2018-09-14T22:43:00.909Z,5.33
2018-09-14T22:45:30.163Z,3.93
2018-09-14T22:47:58.610Z,4.67
2018-09-14T22:50:27.112Z,7.00
2018-09-14T22:52:55.660Z,6.30
2018-09-14T22:55:24.422Z,4.23
2018-09-14T22:57:52.934Z,5.10
2018-09-14T23:00:26.692Z,6.10
2018-09-14T23:02:55.181Z,3.27
2018-09-14T23:05:23.749Z,4.57
2018-09-14T23:07:52.252Z,7.67
2018-09-14T23:10:20.799Z,4.33
2018-09-14T23:12:49.311Z,5.80
2018-09-14T23:15:17.897Z,6.50
2018-09-14T23:17:46.445Z,5.97
2018-09-14T23:20:14.947Z,4.63
2018-09-14T23:22:43.550Z,6.40
2018-09-14T23:25:12.116Z,7.97
2018-09-14T23:27:40.651Z,3.73
2018-09-14T23:30:09.193Z,6.93
2018-09-14T23:32:37.764Z,6.83
2018-09-14T23:35:07.116Z,4.07
2018-09-14T23:37:35.898Z,6.00
2018-09-14T23:40:04.479Z,3.93
2018-09-14T23:42:33.003Z,4.80
2018-09-14T23:45:01.539Z,6.73
2018-09-14T23:47:30.145Z,4.07
2018-09-14T23:49:58.877Z,7.00
2018-09-14T23:52:27.377Z,7.87
2018-09-14T23:54:55.959Z,7.07
2018-09-14T23:57:25.574Z,3.30
2018-09-14T23:59:54.412Z,5.30
